Terminal Aerodrome Forecast
Issued by NWS Twin Cities, MN

Home | Current Version | Previous Version | Text Only | Print | Product List | Glossary On
Versions: 1 2 3 4 5 6 7 8 9 10 11 12 13 14 15 16 17 18 19 20 21 22 23 24
500
FTUS43 KMPX 270253 AAA
TAFMSP
TAF AMD
KMSP 270253Z 2703/2806 35007KT P6SM SKC
     FM270600 26005KT P6SM SKC
     FM270900 22007KT P6SM BKN080
     FM271300 26012G20KT P6SM SCT080
     FM271500 31018G28KT P6SM SKC
     FM271900 32021G32KT P6SM BKN050
     FM280100 35015G22KT P6SM SCT050=

USA.gov is the U.S. government's official web portal to all federal, state and local government web resources and services.